createdAt,value
2022-09-26T00:01:36.181Z,15.95
2022-09-26T00:04:07.253Z,15.90
2022-09-26T00:06:36.548Z,16.02
2022-09-26T00:09:04.415Z,16.09
2022-09-26T00:11:34.194Z,15.96
2022-09-26T00:14:07.035Z,15.88
2022-09-26T00:16:35.259Z,15.83
2022-09-26T00:19:03.475Z,15.92
2022-09-26T00:21:32.028Z,16.07
2022-09-26T00:24:02.232Z,16.01
2022-09-26T00:26:32.900Z,16.15
2022-09-26T00:29:04.487Z,16.03
2022-09-26T00:31:34.690Z,15.77
2022-09-26T00:34:03.188Z,15.86
2022-09-26T00:36:38.112Z,15.93
2022-09-26T00:39:08.868Z,15.83
2022-09-26T00:41:37.721Z,15.85
2022-09-26T00:44:46.130Z,15.61
2022-09-26T00:47:25.568Z,15.74
2022-09-26T00:49:59.167Z,15.81
2022-09-26T00:52:31.487Z,15.88
2022-09-26T00:55:04.222Z,15.84
2022-09-26T00:57:36.685Z,15.82
2022-09-26T01:00:08.568Z,15.56
2022-09-26T01:02:36.969Z,15.61
2022-09-26T01:05:07.700Z,15.68
2022-09-26T01:07:36.271Z,15.69
2022-09-26T01:10:06.780Z,15.66
2022-09-26T01:12:37.235Z,15.55
2022-09-26T01:15:07.413Z,15.75
2022-09-26T01:17:35.616Z,15.58
2022-09-26T01:20:15.144Z,15.62
2022-09-26T01:23:24.439Z,15.73
2022-09-26T01:26:15.317Z,15.80
2022-09-26T01:28:57.601Z,15.70
2022-09-26T01:31:35.541Z,15.78
2022-09-26T01:34:12.489Z,15.72
2022-09-26T01:36:52.901Z,15.78
2022-09-26T01:39:32.174Z,15.85
2022-09-26T01:42:10.661Z,15.84
2022-09-26T01:44:47.343Z,15.76
2022-09-26T01:47:21.593Z,15.78
2022-09-26T01:49:55.912Z,15.68
2022-09-26T01:52:31.429Z,15.78
2022-09-26T01:55:07.027Z,15.69
2022-09-26T01:57:42.970Z,15.62
2022-09-26T02:00:12.868Z,15.83
2022-09-26T02:02:46.904Z,15.64
2022-09-26T02:05:19.530Z,15.61
2022-09-26T02:07:53.174Z,15.75
2022-09-26T02:10:28.068Z,15.66
2022-09-26T02:13:01.226Z,15.75
2022-09-26T02:15:31.517Z,15.68
2022-09-26T02:18:09.017Z,15.58
2022-09-26T02:20:39.240Z,15.63
2022-09-26T02:23:07.141Z,15.66
2022-09-26T02:25:35.909Z,15.76
2022-09-26T02:28:05.810Z,15.59
2022-09-26T02:30:33.891Z,15.76
2022-09-26T02:33:03.690Z,15.78
2022-09-26T02:35:51.307Z,15.72
2022-09-26T02:38:19.168Z,15.70
2022-09-26T02:41:02.995Z,15.61
2022-09-26T02:43:45.649Z,15.60
2022-09-26T02:46:40.750Z,15.59
2022-09-26T02:49:26.298Z,15.42
2022-09-26T02:52:10.110Z,15.52
2022-09-26T02:54:46.485Z,15.64
2022-09-26T02:57:31.440Z,15.56
2022-09-26T03:00:04.529Z,15.51
2022-09-26T03:02:39.943Z,15.47
2022-09-26T03:05:30.834Z,15.42
2022-09-26T03:08:04.603Z,15.38
2022-09-26T03:10:33.998Z,15.40
2022-09-26T03:13:04.975Z,15.51
2022-09-26T03:15:34.288Z,15.51
2022-09-26T03:18:07.677Z,15.42
2022-09-26T03:20:37.149Z,15.38
2022-09-26T03:23:05.724Z,15.28
2022-09-26T03:25:33.983Z,15.34
2022-09-26T03:28:05.766Z,15.31
2022-09-26T03:30:34.972Z,15.45
2022-09-26T03:33:32.454Z,15.36
2022-09-26T03:36:05.972Z,15.61
2022-09-26T03:38:33.963Z,15.44
2022-09-26T03:41:10.291Z,15.38
2022-09-26T03:43:58.613Z,15.33
2022-09-26T03:46:39.000Z,15.29
2022-09-26T03:49:07.936Z,15.24
2022-09-26T03:51:37.462Z,15.33
2022-09-26T03:54:05.368Z,15.43
2022-09-26T03:56:33.222Z,15.43
2022-09-26T03:59:01.152Z,15.36
2022-09-26T04:01:31.840Z,15.36
2022-09-26T04:03:59.838Z,15.44
2022-09-26T04:06:28.085Z,15.49
2022-09-26T04:08:57.997Z,15.34
2022-09-26T04:11:25.913Z,15.35
2022-09-26T04:13:54.568Z,15.34
2022-09-26T04:16:27.392Z,15.39
2022-09-26T04:19:05.475Z,15.36
2022-09-26T04:21:34.300Z,15.27
2022-09-26T04:24:04.292Z,15.36
2022-09-26T04:26:32.221Z,15.26
2022-09-26T04:29:00.364Z,15.24
2022-09-26T04:32:06.696Z,15.17
2022-09-26T04:34:52.788Z,15.10
2022-09-26T04:37:21.789Z,14.97
2022-09-26T04:39:51.034Z,15.07
2022-09-26T04:42:18.857Z,15.01
2022-09-26T04:44:46.714Z,15.05
2022-09-26T04:47:14.535Z,15.03
2022-09-26T04:50:02.344Z,15.04
2022-09-26T04:52:31.961Z,15.01
2022-09-26T04:55:01.242Z,15.01
2022-09-26T04:57:29.169Z,14.99
2022-09-26T04:59:57.006Z,15.01
2022-09-26T05:02:24.993Z,14.95
2022-09-26T05:04:55.215Z,14.91
2022-09-26T05:07:23.381Z,14.95
2022-09-26T05:09:53.061Z,14.77
2022-09-26T05:12:23.802Z,14.90
2022-09-26T05:14:56.773Z,14.82
2022-09-26T05:17:24.762Z,14.87
2022-09-26T05:19:56.935Z,14.75
2022-09-26T05:22:33.895Z,14.76
2022-09-26T05:25:20.179Z,14.74
2022-09-26T05:27:50.111Z,14.81
2022-09-26T05:30:18.111Z,14.73
2022-09-26T05:32:48.348Z,14.70
2022-09-26T05:35:17.519Z,14.80
2022-09-26T05:37:46.188Z,14.59
2022-09-26T05:40:31.503Z,14.79
2022-09-26T05:43:04.543Z,14.70
2022-09-26T05:45:33.299Z,14.86
2022-09-26T05:48:03.405Z,14.97
2022-09-26T05:50:31.443Z,15.15
2022-09-26T05:53:00.023Z,15.11
2022-09-26T05:55:29.506Z,15.04
2022-09-26T05:58:07.744Z,15.00
2022-09-26T06:01:06.500Z,15.31
2022-09-26T06:03:36.189Z,15.19
2022-09-26T06:06:11.428Z,15.10
2022-09-26T06:08:40.970Z,15.15
2022-09-26T06:11:27.405Z,15.22
2022-09-26T06:13:57.642Z,15.26
2022-09-26T06:16:26.159Z,15.37
2022-09-26T06:18:55.622Z,15.13
2022-09-26T06:21:24.552Z,15.24
2022-09-26T06:24:00.498Z,15.34
2022-09-26T06:26:30.408Z,15.22
2022-09-26T06:29:00.973Z,15.22
2022-09-26T06:31:34.470Z,15.31
2022-09-26T06:34:12.832Z,15.32
2022-09-26T06:36:47.485Z,15.62
2022-09-26T06:39:15.900Z,15.57
2022-09-26T06:41:45.583Z,15.52
2022-09-26T06:44:37.924Z,15.60
2022-09-26T06:47:25.941Z,15.75
2022-09-26T06:50:14.671Z,15.72
2022-09-26T06:52:46.325Z,15.58
2022-09-26T06:55:15.667Z,15.55
2022-09-26T06:57:45.243Z,15.51
2022-09-26T07:00:16.910Z,15.70
2022-09-26T07:03:16.968Z,15.67
2022-09-26T07:05:51.611Z,16.14
2022-09-26T07:08:19.519Z,16.02
2022-09-26T07:10:48.210Z,15.99
2022-09-26T07:13:35.190Z,16.23
2022-09-26T07:16:04.560Z,16.07
2022-09-26T07:18:55.573Z,16.12
2022-09-26T07:21:37.763Z,16.11
2022-09-26T07:24:14.068Z,16.16
2022-09-26T07:26:43.476Z,16.08
2022-09-26T07:29:12.394Z,16.25
2022-09-26T07:31:41.893Z,16.31
2022-09-26T07:34:30.293Z,16.41
2022-09-26T07:36:59.560Z,16.38
2022-09-26T07:39:27.601Z,16.64
2022-09-26T07:41:55.467Z,16.64
2022-09-26T07:47:30.943Z,16.52
2022-09-26T07:50:15.596Z,16.60
2022-09-26T07:53:08.095Z,16.66
2022-09-26T07:56:10.556Z,16.64
2022-09-26T07:58:59.093Z,16.62
2022-09-26T08:01:44.880Z,16.63
2022-09-26T08:04:35.130Z,16.76
2022-09-26T08:07:04.168Z,16.86
2022-09-26T08:09:35.195Z,16.92
2022-09-26T08:12:22.130Z,16.79
2022-09-26T08:15:09.930Z,16.67
2022-09-26T08:17:44.927Z,16.75
2022-09-26T08:20:14.206Z,17.00
2022-09-26T08:22:42.044Z,16.84
2022-09-26T08:25:12.810Z,16.82
2022-09-26T08:28:13.424Z,16.78
2022-09-26T08:30:44.940Z,16.92
2022-09-26T08:33:14.014Z,17.08
2022-09-26T08:35:43.387Z,17.22
2022-09-26T08:38:17.217Z,16.94
2022-09-26T08:40:55.533Z,17.00
2022-09-26T08:44:03.620Z,17.16
2022-09-26T08:47:00.978Z,17.47
2022-09-26T08:50:00.083Z,17.25
2022-09-26T08:52:40.941Z,17.41
2022-09-26T08:55:16.096Z,17.68
2022-09-26T08:57:49.252Z,17.44
2022-09-26T09:00:20.611Z,17.58
2022-09-26T09:03:04.879Z,17.66
2022-09-26T09:05:35.236Z,17.62
2022-09-26T09:08:09.965Z,17.70
2022-09-26T09:10:48.377Z,17.88
2022-09-26T09:13:49.651Z,17.81
2022-09-26T09:16:38.030Z,17.63
2022-09-26T09:19:21.900Z,17.50
2022-09-26T09:22:20.555Z,17.56
2022-09-26T09:25:17.559Z,17.31
2022-09-26T09:28:02.498Z,17.47
2022-09-26T09:30:40.724Z,17.73
2022-09-26T09:33:20.874Z,17.87
2022-09-26T09:35:58.521Z,17.88
2022-09-26T09:38:41.706Z,18.02
2022-09-26T09:41:25.163Z,18.04
2022-09-26T09:43:55.516Z,18.30
2022-09-26T09:46:28.905Z,17.99
2022-09-26T09:49:01.574Z,18.35
2022-09-26T09:51:39.256Z,18.20
2022-09-26T09:54:35.313Z,18.49
2022-09-26T09:57:34.794Z,18.06
2022-09-26T10:00:12.855Z,18.37
2022-09-26T10:02:54.913Z,18.65
2022-09-26T10:05:37.602Z,18.64
2022-09-26T10:08:13.207Z,18.90
2022-09-26T10:11:24.268Z,19.09
2022-09-26T10:14:04.692Z,19.01
2022-09-26T10:17:15.334Z,18.90
2022-09-26T10:20:03.488Z,18.58
2022-09-26T10:22:38.082Z,18.74
2022-09-26T10:25:16.975Z,18.63
2022-09-26T10:27:50.522Z,19.22
2022-09-26T10:30:30.182Z,19.13
2022-09-26T10:33:06.075Z,18.58
2022-09-26T10:35:44.050Z,18.89
2022-09-26T10:38:21.638Z,18.93
2022-09-26T10:40:58.231Z,19.20
2022-09-26T10:43:32.348Z,19.15
2022-09-26T10:46:18.465Z,20.15
2022-09-26T10:49:07.218Z,20.71
2022-09-26T10:52:02.644Z,19.91
2022-09-26T10:54:41.863Z,19.56
2022-09-26T10:57:21.093Z,19.50
2022-09-26T10:59:49.923Z,19.44
2022-09-26T11:02:23.816Z,19.32
2022-09-26T11:05:14.122Z,19.12
2022-09-26T11:08:00.463Z,19.04
2022-09-26T11:10:53.051Z,18.98
2022-09-26T11:13:46.663Z,19.14
2022-09-26T11:16:18.011Z,19.12
2022-09-26T11:18:57.998Z,19.16
2022-09-26T11:21:34.211Z,19.19
2022-09-26T11:24:07.009Z,18.98
2022-09-26T11:26:45.052Z,19.13
2022-09-26T11:29:18.967Z,19.18
2022-09-26T11:32:02.439Z,19.03
2022-09-26T11:35:16.119Z,19.44
2022-09-26T11:38:05.751Z,19.82
2022-09-26T11:40:45.953Z,19.40
2022-09-26T11:43:25.892Z,19.34
2022-09-26T11:46:16.610Z,19.56
2022-09-26T11:49:13.211Z,19.54
2022-09-26T11:52:25.331Z,19.54
2022-09-26T11:55:11.875Z,19.82
2022-09-26T11:57:49.317Z,19.46
2022-09-26T12:00:27.491Z,19.31
2022-09-26T12:03:33.495Z,19.63
2022-09-26T12:06:07.240Z,19.42
2022-09-26T12:09:07.912Z,19.45
2022-09-26T12:11:44.052Z,19.45
2022-09-26T12:14:29.395Z,19.66
2022-09-26T12:17:06.275Z,20.24
2022-09-26T12:19:43.365Z,20.45
2022-09-26T12:22:30.827Z,20.31
2022-09-26T12:25:20.316Z,20.09
2022-09-26T12:28:00.133Z,19.69
2022-09-26T12:30:35.214Z,19.41
2022-09-26T12:33:23.176Z,19.52
2022-09-26T12:35:57.453Z,19.81
2022-09-26T12:38:43.108Z,19.30
2022-09-26T12:41:28.316Z,19.57
2022-09-26T12:44:31.242Z,19.58
2022-09-26T12:47:21.456Z,19.53
2022-09-26T12:50:04.523Z,19.42
2022-09-26T12:52:51.800Z,19.40
2022-09-26T12:55:33.066Z,19.53
2022-09-26T12:58:16.806Z,19.42
2022-09-26T13:00:56.935Z,19.47
2022-09-26T13:03:54.795Z,19.37
2022-09-26T13:07:17.309Z,19.29
2022-09-26T13:10:07.341Z,19.39
2022-09-26T13:12:58.017Z,19.34
2022-09-26T13:15:32.370Z,19.37
2022-09-26T13:18:04.286Z,19.62
2022-09-26T13:20:40.784Z,19.56
2022-09-26T13:23:13.116Z,19.42
2022-09-26T13:25:49.736Z,19.60
2022-09-26T13:28:23.370Z,19.53
2022-09-26T13:30:54.526Z,19.57
2022-09-26T13:33:26.617Z,19.57
2022-09-26T13:35:57.773Z,19.87
2022-09-26T13:38:40.267Z,19.82
2022-09-26T13:41:23.763Z,19.69
2022-09-26T13:44:03.435Z,20.11
2022-09-26T13:46:44.374Z,19.91
2022-09-26T13:49:31.739Z,19.72
2022-09-26T13:52:14.371Z,19.65
2022-09-26T13:54:57.251Z,19.82
2022-09-26T13:57:32.519Z,19.53
2022-09-26T14:00:01.924Z,19.52
2022-09-26T14:02:34.236Z,19.84
2022-09-26T14:05:46.305Z,19.68
2022-09-26T14:08:53.775Z,19.59
2022-09-26T14:11:30.329Z,19.87
2022-09-26T14:14:39.760Z,19.93
2022-09-26T14:17:40.873Z,19.76
2022-09-26T14:20:17.193Z,19.69
2022-09-26T14:22:51.808Z,19.40
2022-09-26T14:25:55.611Z,19.43
2022-09-26T14:28:33.253Z,19.54
2022-09-26T14:31:38.610Z,19.37
2022-09-26T14:34:16.855Z,19.30
2022-09-26T14:36:47.473Z,19.48
2022-09-26T14:39:35.001Z,19.69
2022-09-26T14:42:20.089Z,19.47
2022-09-26T14:44:58.400Z,19.51
2022-09-26T14:47:28.454Z,19.07
2022-09-26T14:50:02.968Z,19.17
2022-09-26T14:52:33.916Z,18.76
2022-09-26T14:55:06.984Z,19.04
2022-09-26T14:57:36.271Z,19.42
2022-09-26T15:00:19.865Z,19.17
2022-09-26T15:02:50.369Z,19.42
2022-09-26T15:05:25.162Z,19.44
2022-09-26T15:07:56.958Z,19.25
2022-09-26T15:10:38.484Z,19.28
2022-09-26T15:13:19.523Z,19.34
2022-09-26T15:15:55.424Z,19.28
2022-09-26T15:18:34.659Z,19.26
2022-09-26T15:21:10.746Z,19.44
2022-09-26T15:23:49.473Z,19.37
2022-09-26T15:26:21.491Z,19.31
2022-09-26T15:28:51.786Z,19.44
2022-09-26T15:31:23.500Z,19.23
2022-09-26T15:33:55.704Z,19.28
2022-09-26T15:36:23.907Z,19.21
2022-09-26T15:38:53.323Z,19.24
2022-09-26T15:41:35.278Z,18.98
2022-09-26T15:44:05.816Z,19.00
2022-09-26T15:46:34.091Z,19.00
2022-09-26T15:49:02.142Z,19.28
2022-09-26T15:51:39.279Z,18.93
2022-09-26T15:54:16.058Z,18.91
2022-09-26T15:56:49.811Z,19.07
2022-09-26T15:59:22.537Z,19.03
2022-09-26T16:01:52.297Z,18.80
2022-09-26T16:04:22.621Z,18.50
2022-09-26T16:06:56.266Z,18.62
2022-09-26T16:09:32.362Z,18.52
2022-09-26T16:12:03.061Z,18.58
2022-09-26T16:14:40.333Z,18.59
2022-09-26T16:17:18.758Z,18.55
2022-09-26T16:19:49.130Z,18.48
2022-09-26T16:22:44.945Z,18.27
2022-09-26T16:25:29.950Z,18.29
2022-09-26T16:28:42.537Z,18.32
2022-09-26T16:31:23.170Z,18.27
2022-09-26T16:33:53.396Z,18.28
2022-09-26T16:36:23.471Z,18.26
2022-09-26T16:38:59.982Z,18.16
2022-09-26T16:44:27.802Z,17.93
2022-09-26T16:47:03.136Z,18.02
2022-09-26T16:49:42.129Z,18.19
2022-09-26T16:52:21.950Z,18.19
2022-09-26T16:54:50.183Z,18.12
2022-09-26T16:57:22.711Z,18.12
2022-09-26T16:59:52.396Z,18.16
2022-09-26T17:02:20.345Z,17.98
2022-09-26T17:04:50.088Z,17.90
2022-09-26T17:07:18.077Z,17.86
2022-09-26T17:09:46.026Z,17.79
2022-09-26T17:12:18.973Z,17.93
2022-09-26T17:14:51.903Z,17.71
2022-09-26T17:17:25.294Z,17.68
2022-09-26T17:19:59.399Z,17.62
2022-09-26T17:22:28.659Z,17.73
2022-09-26T17:24:56.629Z,17.77
2022-09-26T17:27:27.530Z,17.67
2022-09-26T17:30:05.954Z,17.62
2022-09-26T17:32:37.445Z,17.48
2022-09-26T17:35:13.379Z,17.58
2022-09-26T17:37:41.380Z,17.63
2022-09-26T17:40:16.950Z,17.53
2022-09-26T17:42:44.975Z,17.53
2022-09-26T17:45:14.674Z,17.53
2022-09-26T17:47:42.685Z,17.41
2022-09-26T17:50:21.953Z,17.41
2022-09-26T17:52:50.389Z,17.41
2022-09-26T17:55:24.532Z,17.28
2022-09-26T17:57:54.054Z,17.34
2022-09-26T18:00:23.447Z,17.27
2022-09-26T18:02:55.189Z,17.27
2022-09-26T18:05:26.324Z,17.03
2022-09-26T18:07:58.655Z,17.18
2022-09-26T18:10:30.479Z,17.11
2022-09-26T18:13:00.902Z,17.16
2022-09-26T18:15:31.103Z,17.16
2022-09-26T18:18:00.330Z,17.06
2022-09-26T18:20:38.060Z,17.13
2022-09-26T18:23:07.741Z,17.04
2022-09-26T18:25:37.576Z,17.01
2022-09-26T18:28:08.140Z,16.92
2022-09-26T18:30:38.842Z,16.96
2022-09-26T18:33:07.103Z,16.82
2022-09-26T18:35:35.099Z,16.96
2022-09-26T18:38:03.403Z,16.98
2022-09-26T18:40:31.706Z,16.94
2022-09-26T18:42:59.848Z,16.95
2022-09-26T18:45:30.340Z,16.95
2022-09-26T18:47:59.722Z,16.69
2022-09-26T18:50:34.213Z,16.69
2022-09-26T18:53:02.237Z,16.74
2022-09-26T18:55:50.163Z,16.74
2022-09-26T18:58:25.677Z,16.70
2022-09-26T19:00:56.728Z,16.89
2022-09-26T19:03:29.186Z,16.64
2022-09-26T19:06:03.208Z,16.87
2022-09-26T19:08:36.847Z,16.78
2022-09-26T19:11:11.107Z,16.91
2022-09-26T19:13:39.047Z,16.66
2022-09-26T19:16:07.579Z,16.86
2022-09-26T19:18:37.503Z,16.81
2022-09-26T19:21:08.173Z,16.82
2022-09-26T19:23:39.371Z,16.93
2022-09-26T19:26:10.303Z,16.74
2022-09-26T19:28:38.378Z,16.82
2022-09-26T19:31:06.504Z,16.69
2022-09-26T19:33:35.954Z,16.63
2022-09-26T19:36:06.654Z,16.58
2022-09-26T19:38:34.622Z,16.55
2022-09-26T19:41:03.335Z,16.64
2022-09-26T19:43:31.605Z,16.49
2022-09-26T19:45:59.911Z,16.47
2022-09-26T19:48:27.950Z,16.64
2022-09-26T19:50:57.426Z,16.56
2022-09-26T19:53:25.380Z,16.73
2022-09-26T19:55:55.469Z,16.57
2022-09-26T19:58:25.550Z,16.61
2022-09-26T20:00:58.841Z,16.60
2022-09-26T20:03:28.448Z,16.51
2022-09-26T20:06:03.476Z,16.45
2022-09-26T20:08:34.898Z,16.32
2022-09-26T20:11:03.329Z,16.34
2022-09-26T20:13:52.215Z,16.36
2022-09-26T20:16:20.370Z,16.58
2022-09-26T20:18:51.064Z,16.24
2022-09-26T20:21:25.288Z,16.25
2022-09-26T20:23:53.279Z,16.17
2022-09-26T20:26:21.677Z,16.30
2022-09-26T20:28:49.955Z,16.23
2022-09-26T20:31:23.167Z,16.40
2022-09-26T20:33:54.427Z,16.44
2022-09-26T20:36:28.369Z,16.08
2022-09-26T20:39:00.459Z,16.25
2022-09-26T20:41:33.851Z,16.15
2022-09-26T20:44:02.369Z,16.03
2022-09-26T20:46:33.232Z,15.99
2022-09-26T20:49:04.337Z,16.34
2022-09-26T20:51:35.120Z,16.21
2022-09-26T20:54:06.598Z,16.20
2022-09-26T20:56:34.527Z,16.16
2022-09-26T20:59:02.449Z,15.96
2022-09-26T21:01:30.501Z,16.32
2022-09-26T21:03:58.738Z,16.21
2022-09-26T21:06:31.593Z,16.19
2022-09-26T21:09:01.217Z,16.12
2022-09-26T21:11:29.280Z,16.20
2022-09-26T21:13:57.228Z,15.98
2022-09-26T21:16:25.187Z,16.15
2022-09-26T21:18:54.020Z,16.15
2022-09-26T21:21:25.158Z,15.97
2022-09-26T21:24:24.753Z,16.10
2022-09-26T21:26:53.037Z,16.16
2022-09-26T21:29:21.104Z,16.29
2022-09-26T21:31:52.563Z,15.98
2022-09-26T21:34:23.445Z,16.00
2022-09-26T21:36:54.312Z,16.05
2022-09-26T21:39:25.180Z,16.09
2022-09-26T21:41:56.792Z,15.91
2022-09-26T21:44:29.082Z,16.15
2022-09-26T21:46:57.048Z,16.11
2022-09-26T21:49:25.741Z,15.81
2022-09-26T21:51:58.916Z,15.98
2022-09-26T21:54:32.908Z,15.80
2022-09-26T21:57:06.235Z,15.92
2022-09-26T21:59:34.020Z,15.89
2022-09-26T22:02:02.107Z,15.86
2022-09-26T22:04:30.087Z,15.83
2022-09-26T22:06:58.079Z,15.72
2022-09-26T22:09:26.067Z,15.72
2022-09-26T22:11:55.495Z,15.78
2022-09-26T22:14:23.451Z,15.96
2022-09-26T22:16:51.495Z,15.83
2022-09-26T22:19:19.828Z,15.61
2022-09-26T22:21:47.866Z,15.65
2022-09-26T22:24:15.871Z,15.73
2022-09-26T22:26:45.093Z,15.82
2022-09-26T22:29:14.744Z,15.84
2022-09-26T22:31:43.257Z,15.85
2022-09-26T22:34:11.794Z,15.76
2022-09-26T22:36:39.791Z,15.84
2022-09-26T22:39:07.814Z,15.81
2022-09-26T22:41:35.748Z,15.68
2022-09-26T22:44:04.061Z,15.78
2022-09-26T22:46:35.324Z,15.80
2022-09-26T22:49:03.681Z,15.75
2022-09-26T22:51:31.655Z,15.82
2022-09-26T22:53:59.640Z,15.81
2022-09-26T22:56:27.683Z,15.72
2022-09-26T22:58:55.764Z,15.83
2022-09-26T23:01:27.297Z,15.82
2022-09-26T23:03:58.615Z,15.76
2022-09-26T23:06:27.384Z,15.71
2022-09-26T23:08:56.262Z,15.82
2022-09-26T23:11:24.907Z,15.86
2022-09-26T23:13:53.698Z,15.86
2022-09-26T23:16:24.112Z,15.82
2022-09-26T23:18:52.784Z,15.97
2022-09-26T23:21:24.061Z,15.71
2022-09-26T23:23:54.885Z,15.96
2022-09-26T23:26:25.006Z,15.69
2022-09-26T23:28:55.073Z,15.76
2022-09-26T23:31:24.160Z,15.77
2022-09-26T23:33:53.189Z,15.56
2022-09-26T23:36:23.086Z,15.64
2022-09-26T23:38:51.264Z,15.64
2022-09-26T23:41:19.617Z,15.79
2022-09-26T23:43:47.593Z,15.66
2022-09-26T23:46:15.985Z,15.64
2022-09-26T23:48:44.513Z,15.85
2022-09-26T23:51:12.583Z,15.63
2022-09-26T23:53:41.866Z,15.66
2022-09-26T23:56:11.969Z,15.83
2022-09-26T23:58:40.223Z,15.95
